Time;durP1;ratioP1;P1;durP2;ratioP2;P2;SDS_P1;SDS_P2;PMS_P1;PMS_P2;Temp;Humidity;BMP_temperature;BMP_pressure;BME280_temperature;BME280_humidity;BME280_pressure;Samples;Min_cycle;Max_cycle;Signal;HPM_P1;HPM_P2
2021/06/09 00:00:12;;;;;;;12.10;9.00;;;;;;;;;;143728;577;46052;-63
2021/06/09 00:02:39;;;;;;;16.02;8.48;;;;;;;;;;143726;566;46020;-63
2021/06/09 00:05:07;;;;;;;11.68;8.45;;;;;;;;;;143727;579;46012;-63
2021/06/09 00:07:34;;;;;;;11.82;8.05;;;;;;;;;;143731;569;46021;-63
2021/06/09 00:10:01;;;;;;;12.30;8.13;;;;;;;;;;143729;578;46023;-63
2021/06/09 00:12:28;;;;;;;14.30;8.35;;;;;;;;;;143728;568;46020;-63
2021/06/09 00:14:55;;;;;;;13.52;8.60;;;;;;;;;;143727;594;48013;-63
2021/06/09 00:17:22;;;;;;;14.13;8.35;;;;;;;;;;143733;625;46010;-63
2021/06/09 00:19:49;;;;;;;12.35;7.60;;;;;;;;;;143729;641;46020;-63
2021/06/09 00:22:16;;;;;;;10.60;7.45;;;;;;;;;;143726;647;46021;-63
2021/06/09 00:24:45;;;;;;;9.65;7.57;;;;;;;;;;143728;590;46012;-63
2021/06/09 00:27:12;;;;;;;9.55;7.45;;;;;;;;;;143734;604;45020;-63
2021/06/09 00:29:39;;;;;;;11.95;8.43;;;;;;;;;;143728;581;46022;-62
2021/06/09 00:32:07;;;;;;;9.50;7.75;;;;;;;;;;143727;564;46918;-63
2021/06/09 00:34:34;;;;;;;9.63;8.38;;;;;;;;;;143729;577;46012;-62
2021/06/09 00:37:01;;;;;;;10.80;8.63;;;;;;;;;;143733;627;45021;-63
2021/06/09 00:39:28;;;;;;;26.37;15.43;;;;;;;;;;143728;571;46023;-63
2021/06/09 00:41:55;;;;;;;24.12;15.55;;;;;;;;;;143728;633;46020;-63
2021/06/09 00:44:23;;;;;;;18.87;14.20;;;;;;;;;;143730;587;45021;-62
2021/06/09 00:46:50;;;;;;;25.62;15.25;;;;;;;;;;143732;591;46020;-63
2021/06/09 00:49:17;;;;;;;28.55;13.27;;;;;;;;;;143729;569;46020;-63
2021/06/09 00:51:44;;;;;;;15.88;11.43;;;;;;;;;;143728;605;46021;-62
2021/06/09 00:54:11;;;;;;;21.95;14.68;;;;;;;;;;143727;588;46014;-63
2021/06/09 00:56:39;;;;;;;18.80;12.40;;;;;;;;;;143733;587;46010;-63
2021/06/09 00:59:07;;;;;;;19.12;13.10;;;;;;;;;;143728;579;47021;-63
2021/06/09 01:01:34;;;;;;;24.55;13.90;;;;;;;;;;143726;569;46020;-63
2021/06/09 01:04:04;;;;;;;18.33;11.93;;;;;;;;;;143731;594;45031;-62
2021/06/09 01:06:31;;;;;;;21.10;14.52;;;;;;;;;;143732;584;46011;-63
2021/06/09 01:08:58;;;;;;;15.73;10.45;;;;;;;;;;143728;574;47020;-62
2021/06/09 01:11:27;;;;;;;19.55;13.40;;;;;;;;;;143728;636;46020;-62
2021/06/09 01:13:55;;;;;;;18.50;11.93;;;;;;;;;;143730;570;46012;-63
2021/06/09 01:16:24;;;;;;;12.73;10.48;;;;;;;;;;143733;575;46020;-62
2021/06/09 01:18:51;;;;;;;21.83;12.77;;;;;;;;;;143729;618;46022;-63
2021/06/09 01:21:26;;;;;;;21.55;11.75;;;;;;;;;;143728;571;46021;-63
2021/06/09 01:23:53;;;;;;;12.82;11.02;;;;;;;;;;143729;583;46012;-62
2021/06/09 01:26:20;;;;;;;13.52;10.50;;;;;;;;;;143732;617;46020;-63
2021/06/09 01:28:47;;;;;;;17.40;11.00;;;;;;;;;;143729;636;46021;-62
2021/06/09 01:31:15;;;;;;;17.30;10.90;;;;;;;;;;143729;602;46020;-63
2021/06/09 01:33:42;;;;;;;22.48;11.88;;;;;;;;;;143729;622;46012;-63
2021/06/09 01:36:09;;;;;;;19.20;11.25;;;;;;;;;;143733;613;46020;-62
2021/06/09 01:38:36;;;;;;;17.90;11.10;;;;;;;;;;143730;564;46021;-63
2021/06/09 01:41:04;;;;;;;12.80;9.25;;;;;;;;;;143728;566;46020;-62
2021/06/09 01:43:31;;;;;;;15.85;10.85;;;;;;;;;;143727;571;46013;-63
2021/06/09 01:45:59;;;;;;;16.55;9.98;;;;;;;;;;143734;570;45025;-63
2021/06/09 01:48:26;;;;;;;18.37;11.75;;;;;;;;;;143730;577;46020;-63
2021/06/09 01:50:53;;;;;;;16.15;10.98;;;;;;;;;;143729;642;46012;-63
2021/06/09 01:53:20;;;;;;;20.67;11.77;;;;;;;;;;143729;566;46012;-62
2021/06/09 01:55:48;;;;;;;12.70;10.35;;;;;;;;;;143733;564;46020;-62
2021/06/09 01:58:16;;;;;;;14.32;10.82;;;;;;;;;;143728;569;46021;-63
2021/06/09 02:00:45;;;;;;;14.68;8.80;;;;;;;;;;143729;576;46012;-63
2021/06/09 02:03:14;;;;;;;14.63;10.38;;;;;;;;;;143730;632;46012;-63
2021/06/09 02:05:43;;;;;;;17.87;11.05;;;;;;;;;;143733;585;46010;-63
2021/06/09 02:08:15;;;;;;;10.13;8.10;;;;;;;;;;143730;585;46021;-63
2021/06/09 02:10:43;;;;;;;13.82;9.40;;;;;;;;;;143728;581;46020;-63
2021/06/09 02:13:14;;;;;;;13.90;8.48;;;;;;;;;;143731;591;45021;-62
2021/06/09 02:15:42;;;;;;;13.70;10.07;;;;;;;;;;143733;647;46020;-62
2021/06/09 02:18:12;;;;;;;13.68;9.95;;;;;;;;;;143727;613;46020;-63
2021/06/09 02:20:47;;;;;;;16.90;12.02;;;;;;;;;;143726;600;46021;-63
2021/06/09 02:23:19;;;;;;;16.37;11.12;;;;;;;;;;143725;576;46012;-62
2021/06/09 02:25:49;;;;;;;15.30;11.88;;;;;;;;;;143731;590;46010;-63
2021/06/09 02:28:17;;;;;;;15.07;11.25;;;;;;;;;;143727;600;46021;-63
2021/06/09 02:30:46;;;;;;;18.85;11.95;;;;;;;;;;143727;578;46012;-62
2021/06/09 02:33:15;;;;;;;17.62;12.57;;;;;;;;;;143729;589;45029;-63
2021/06/09 02:35:44;;;;;;;13.02;10.93;;;;;;;;;;143730;583;46011;-63
2021/06/09 02:38:13;;;;;;;13.62;10.18;;;;;;;;;;143727;601;46023;-62
2021/06/09 02:40:40;;;;;;;19.73;13.80;;;;;;;;;;143725;632;47012;-63
2021/06/09 02:43:08;;;;;;;17.17;11.82;;;;;;;;;;143728;592;46012;-63
2021/06/09 02:45:36;;;;;;;19.33;14.60;;;;;;;;;;143732;626;45020;-63
2021/06/09 02:48:12;;;;;;;24.42;17.42;;;;;;;;;;143726;569;47020;-63
2021/06/09 02:50:39;;;;;;;25.00;16.50;;;;;;;;;;143726;595;46021;-63
2021/06/09 02:53:22;;;;;;;20.58;16.48;;;;;;;;;;143731;572;45020;-62
2021/06/09 02:56:31;;;;;;;30.15;20.45;;;;;;;;;;143730;615;46020;-63
2021/06/09 02:59:16;;;;;;;23.23;16.08;;;;;;;;;;143725;713;46032;-63
2021/06/09 03:02:13;;;;;;;28.67;18.95;;;;;;;;;;143726;606;46020;-63
2021/06/09 03:05:26;;;;;;;24.12;17.77;;;;;;;;;;143729;698;45021;-63
2021/06/09 03:08:33;;;;;;;24.58;14.35;;;;;;;;;;143732;605;45021;-63
2021/06/09 03:11:30;;;;;;;17.05;12.23;;;;;;;;;;143727;579;46020;-63
2021/06/09 03:17:27;;;;;;;19.37;13.35;;;;;;;;;;143727;569;46020;-63
2021/06/09 03:20:22;;;;;;;14.02;11.38;;;;;;;;;;143726;630;46021;-63
2021/06/09 03:22:58;;;;;;;17.55;12.43;;;;;;;;;;143727;609;46021;-63
2021/06/09 03:25:33;;;;;;;20.92;16.45;;;;;;;;;;143727;578;46012;-63
2021/06/09 03:28:18;;;;;;;19.48;13.32;;;;;;;;;;143726;640;46012;-63
2021/06/09 03:30:54;;;;;;;27.23;18.02;;;;;;;;;;143731;587;46020;-62
2021/06/09 03:33:24;;;;;;;18.02;11.52;;;;;;;;;;143727;585;46020;-63
2021/06/09 03:36:00;;;;;;;17.77;14.07;;;;;;;;;;143724;643;46021;-63
2021/06/09 03:38:35;;;;;;;20.35;13.50;;;;;;;;;;143729;577;45020;-62
2021/06/09 03:41:07;;;;;;;15.95;11.10;;;;;;;;;;143731;566;46010;-63
2021/06/09 03:43:37;;;;;;;20.02;12.52;;;;;;;;;;143727;602;46021;-63
2021/06/09 03:46:09;;;;;;;16.35;11.30;;;;;;;;;;143724;576;46020;-63
2021/06/09 03:48:41;;;;;;;20.15;12.98;;;;;;;;;;143728;606;46012;-62
2021/06/09 03:51:09;;;;;;;20.73;13.52;;;;;;;;;;143730;607;46010;-63
2021/06/09 03:53:38;;;;;;;17.98;10.57;;;;;;;;;;143728;603;46020;-63
2021/06/09 03:56:07;;;;;;;16.85;12.00;;;;;;;;;;143728;577;46020;-63
2021/06/09 03:58:34;;;;;;;17.05;11.65;;;;;;;;;;143729;623;45034;-63
2021/06/09 04:01:02;;;;;;;27.02;16.23;;;;;;;;;;143730;583;46032;-62
2021/06/09 04:03:30;;;;;;;24.30;13.30;;;;;;;;;;143727;585;46020;-63
2021/06/09 04:06:00;;;;;;;22.73;14.07;;;;;;;;;;143726;561;46020;-62
2021/06/09 04:08:28;;;;;;;18.85;13.40;;;;;;;;;;143729;618;45020;-62
2021/06/09 04:10:58;;;;;;;16.92;12.07;;;;;;;;;;143732;640;45020;-62
2021/06/09 04:13:27;;;;;;;19.70;12.55;;;;;;;;;;143727;619;46021;-63
2021/06/09 04:15:55;;;;;;;19.58;11.30;;;;;;;;;;143726;590;46020;-62
2021/06/09 04:18:23;;;;;;;22.00;12.82;;;;;;;;;;143729;605;45022;-63
2021/06/09 04:20:51;;;;;;;18.48;12.07;;;;;;;;;;143732;599;45026;-62
2021/06/09 04:23:18;;;;;;;23.77;12.05;;;;;;;;;;143725;608;46020;-62
2021/06/09 04:25:45;;;;;;;15.07;10.88;;;;;;;;;;143726;621;46020;-62
2021/06/09 04:28:13;;;;;;;22.85;11.18;;;;;;;;;;143727;581;46012;-62
2021/06/09 04:30:40;;;;;;;22.90;10.55;;;;;;;;;;143730;572;46010;-62
2021/06/09 04:33:10;;;;;;;19.05;11.55;;;;;;;;;;143727;564;46020;-62
2021/06/09 04:35:45;;;;;;;17.83;9.93;;;;;;;;;;143726;628;46028;-63
2021/06/09 04:38:16;;;;;;;11.48;9.45;;;;;;;;;;143730;597;45020;-62
2021/06/09 04:40:44;;;;;;;22.60;10.10;;;;;;;;;;143731;697;46020;-62
2021/06/09 04:43:11;;;;;;;15.75;9.27;;;;;;;;;;143728;590;46021;-63
2021/06/09 04:45:39;;;;;;;17.85;10.02;;;;;;;;;;143727;566;46020;-62
2021/06/09 04:48:10;;;;;;;18.52;9.43;;;;;;;;;;143728;565;46012;-63
2021/06/09 04:50:37;;;;;;;13.40;9.60;;;;;;;;;;143730;788;46010;-62
2021/06/09 04:53:11;;;;;;;20.23;10.30;;;;;;;;;;143726;574;47022;-62
2021/06/09 04:55:42;;;;;;;14.43;9.57;;;;;;;;;;143727;574;46012;-63
2021/06/09 04:58:10;;;;;;;18.42;9.48;;;;;;;;;;143728;588;46012;-62
2021/06/09 05:00:37;;;;;;;18.85;11.18;;;;;;;;;;143732;642;45020;-64
2021/06/09 05:03:04;;;;;;;13.27;9.05;;;;;;;;;;143727;577;46021;-63
2021/06/09 05:05:31;;;;;;;14.10;10.23;;;;;;;;;;143724;612;46021;-63
2021/06/09 05:07:58;;;;;;;13.73;9.70;;;;;;;;;;143728;828;46012;-62
2021/06/09 05:10:25;;;;;;;13.23;9.43;;;;;;;;;;143732;570;45020;-63
2021/06/09 05:13:11;;;;;;;17.08;10.95;;;;;;;;;;143726;595;47020;-62
2021/06/09 05:15:42;;;;;;;20.15;11.45;;;;;;;;;;143726;565;46020;-63
2021/06/09 05:18:22;;;;;;;19.87;9.77;;;;;;;;;;143728;700;46013;-63
2021/06/09 05:20:52;;;;;;;16.60;9.32;;;;;;;;;;143731;658;45021;-63
2021/06/09 05:23:37;;;;;;;12.90;8.90;;;;;;;;;;143725;613;46020;-63
2021/06/09 05:26:04;;;;;;;12.85;8.90;;;;;;;;;;143726;598;46021;-63
2021/06/09 05:28:37;;;;;;;17.20;10.00;;;;;;;;;;143731;652;45021;-63
2021/06/09 05:31:05;;;;;;;14.82;8.88;;;;;;;;;;143731;582;46010;-63
2021/06/09 05:33:33;;;;;;;18.65;9.75;;;;;;;;;;143725;599;46022;-63
2021/06/09 05:36:00;;;;;;;15.75;9.63;;;;;;;;;;143726;659;46020;-63
2021/06/09 05:38:28;;;;;;;18.75;9.27;;;;;;;;;;143729;594;45020;-63
2021/06/09 05:40:59;;;;;;;16.98;9.35;;;;;;;;;;143731;600;46010;-63
2021/06/09 05:43:27;;;;;;;14.95;9.38;;;;;;;;;;143726;590;46023;-63
2021/06/09 05:45:55;;;;;;;15.27;9.63;;;;;;;;;;143726;633;46020;-63
2021/06/09 05:48:23;;;;;;;13.80;8.50;;;;;;;;;;143727;576;46012;-62
2021/06/09 05:50:57;;;;;;;15.73;8.68;;;;;;;;;;143728;589;46010;-62
2021/06/09 05:53:24;;;;;;;;;;;;;;;;;;143733;979;46020;-63
2021/06/09 05:55:51;;;;;;;13.15;8.77;;;;;;;;;;143734;623;46021;-62
2021/06/09 05:58:21;;;;;;;14.30;8.45;;;;;;;;;;143729;593;45032;-62
2021/06/09 06:00:54;;;;;;;16.70;9.30;;;;;;;;;;143731;565;46020;-62
2021/06/09 06:03:25;;;;;;;13.18;8.35;;;;;;;;;;143724;578;47020;-62
2021/06/09 06:06:00;;;;;;;11.82;9.73;;;;;;;;;;143726;616;46020;-62
2021/06/09 06:08:28;;;;;;;13.80;8.90;;;;;;;;;;143728;564;46012;-62
2021/06/09 06:10:56;;;;;;;16.75;9.15;;;;;;;;;;143730;627;46012;-62
2021/06/09 06:13:26;;;;;;;14.50;9.40;;;;;;;;;;143727;588;46023;-62
2021/06/09 06:15:57;;;;;;;19.98;10.27;;;;;;;;;;143726;605;46020;-61
2021/06/09 06:18:35;;;;;;;17.52;10.13;;;;;;;;;;143727;607;46012;-62
2021/06/09 06:21:04;;;;;;;18.60;10.57;;;;;;;;;;143730;616;46020;-61
2021/06/09 06:23:32;;;;;;;12.77;9.65;;;;;;;;;;143726;595;46020;-61
2021/06/09 06:25:59;;;;;;;16.98;9.95;;;;;;;;;;143727;588;46012;-60
2021/06/09 06:28:27;;;;;;;12.95;8.95;;;;;;;;;;143728;570;46012;-60
2021/06/09 06:30:54;;;;;;;15.73;8.95;;;;;;;;;;143730;585;46012;-60
2021/06/09 06:33:26;;;;;;;17.25;9.77;;;;;;;;;;143725;573;46022;-60
2021/06/09 06:35:57;;;;;;;18.77;10.27;;;;;;;;;;143726;583;46020;-60
2021/06/09 06:38:25;;;;;;;13.60;8.40;;;;;;;;;;143726;579;46012;-61
2021/06/09 06:40:52;;;;;;;22.48;9.93;;;;;;;;;;143731;589;46012;-61
2021/06/09 06:43:21;;;;;;;17.48;10.43;;;;;;;;;;143727;596;46021;-61
2021/06/09 06:45:48;;;;;;;16.20;10.02;;;;;;;;;;143725;579;46023;-60
2021/06/09 06:48:16;;;;;;;12.77;9.82;;;;;;;;;;143722;583;47012;-60
2021/06/09 06:50:44;;;;;;;16.00;9.18;;;;;;;;;;143730;597;46021;-60
2021/06/09 06:53:11;;;;;;;14.77;9.40;;;;;;;;;;143727;569;46022;-60
2021/06/09 06:55:38;;;;;;;17.77;9.82;;;;;;;;;;143727;569;46012;-59
2021/06/09 06:58:07;;;;;;;16.33;9.88;;;;;;;;;;143729;605;45028;-60
2021/06/09 07:00:34;;;;;;;15.38;9.20;;;;;;;;;;143730;610;46012;-60
2021/06/09 07:03:02;;;;;;;14.23;9.52;;;;;;;;;;143726;580;46022;-61
2021/06/09 07:05:33;;;;;;;15.10;8.90;;;;;;;;;;143726;578;47021;-60
2021/06/09 07:08:01;;;;;;;13.02;8.57;;;;;;;;;;143726;632;46012;-61
2021/06/09 07:10:28;;;;;;;15.38;9.43;;;;;;;;;;143730;576;46013;-62
2021/06/09 07:13:01;;;;;;;14.40;8.93;;;;;;;;;;143726;565;46023;-62
2021/06/09 07:15:28;;;;;;;10.73;8.43;;;;;;;;;;143726;573;46050;-61
2021/06/09 07:17:58;;;;;;;12.10;9.10;;;;;;;;;;143728;575;46012;-61
2021/06/09 07:20:26;;;;;;;13.75;9.35;;;;;;;;;;143730;577;46020;-62
2021/06/09 07:22:56;;;;;;;14.77;9.20;;;;;;;;;;143727;588;46022;-61
2021/06/09 07:25:25;;;;;;;17.02;9.55;;;;;;;;;;143726;680;46021;-61
2021/06/09 07:27:54;;;;;;;15.15;9.85;;;;;;;;;;143730;569;45022;-61
2021/06/09 07:30:27;;;;;;;12.88;9.15;;;;;;;;;;143730;606;46020;-61
2021/06/09 07:32:55;;;;;;;16.20;9.93;;;;;;;;;;143727;580;46021;-62
2021/06/09 07:35:22;;;;;;;12.50;9.32;;;;;;;;;;143726;574;46020;-61
2021/06/09 07:37:51;;;;;;;16.23;9.65;;;;;;;;;;143724;609;46012;-61
2021/06/09 07:40:31;;;;;;;14.02;8.93;;;;;;;;;;143730;585;46020;-61
2021/06/09 07:43:11;;;;;;;14.00;9.27;;;;;;;;;;143726;622;46023;-61
2021/06/09 07:45:39;;;;;;;11.75;9.00;;;;;;;;;;143726;668;46020;-61
2021/06/09 07:48:07;;;;;;;11.95;8.90;;;;;;;;;;143727;587;46012;-61
2021/06/09 07:50:41;;;;;;;10.85;8.88;;;;;;;;;;143731;699;46012;-61
2021/06/09 07:53:10;;;;;;;12.97;9.07;;;;;;;;;;143727;577;46020;-61
2021/06/09 07:55:41;;;;;;;11.45;8.45;;;;;;;;;;143725;570;46021;-61
2021/06/09 07:58:09;;;;;;;12.80;8.25;;;;;;;;;;143728;624;45021;-61
2021/06/09 08:00:36;;;;;;;14.23;8.85;;;;;;;;;;143731;641;46012;-61
2021/06/09 08:03:05;;;;;;;14.18;8.15;;;;;;;;;;143726;578;46022;-61
2021/06/09 08:05:32;;;;;;;13.50;9.05;;;;;;;;;;143724;575;46020;-60
2021/06/09 08:07:59;;;;;;;21.55;9.05;;;;;;;;;;143726;656;46012;-60
2021/06/09 08:10:26;;;;;;;9.07;7.20;;;;;;;;;;143732;640;45021;-60
2021/06/09 08:12:54;;;;;;;9.75;7.00;;;;;;;;;;143726;617;46034;-60
2021/06/09 08:15:23;;;;;;;9.45;6.90;;;;;;;;;;143726;569;46020;-61
2021/06/09 08:17:51;;;;;;;10.13;7.37;;;;;;;;;;143727;729;46012;-60
2021/06/09 08:20:22;;;;;;;13.45;8.23;;;;;;;;;;143730;569;46020;-58
2021/06/09 08:22:50;;;;;;;12.98;7.97;;;;;;;;;;143724;641;46022;-59
2021/06/09 08:25:23;;;;;;;9.98;8.45;;;;;;;;;;143726;590;46021;-60
2021/06/09 08:27:54;;;;;;;11.15;7.82;;;;;;;;;;143729;566;46014;-60
2021/06/09 08:30:22;;;;;;;12.15;8.43;;;;;;;;;;143730;569;46012;-61
2021/06/09 08:32:49;;;;;;;13.18;8.88;;;;;;;;;;143726;572;46022;-61
2021/06/09 08:35:17;;;;;;;12.32;8.98;;;;;;;;;;143728;611;46012;-62
2021/06/09 08:37:45;;;;;;;9.20;7.65;;;;;;;;;;143728;571;46012;-62
2021/06/09 08:40:13;;;;;;;11.05;7.75;;;;;;;;;;143731;578;46025;-61
2021/06/09 08:42:43;;;;;;;10.02;7.70;;;;;;;;;;143728;583;46020;-61
2021/06/09 08:45:12;;;;;;;9.38;7.25;;;;;;;;;;143725;687;46020;-61
2021/06/09 08:47:39;;;;;;;10.45;7.57;;;;;;;;;;143726;721;46912;-61
2021/06/09 08:50:09;;;;;;;12.40;8.77;;;;;;;;;;143732;640;46012;-62
2021/06/09 08:52:46;;;;;;;14.05;8.60;;;;;;;;;;143727;573;46051;-62
2021/06/09 08:55:14;;;;;;;10.80;8.05;;;;;;;;;;143726;642;46021;-62
2021/06/09 08:57:41;;;;;;;10.07;8.02;;;;;;;;;;143727;594;46012;-62
2021/06/09 09:00:10;;;;;;;11.90;8.80;;;;;;;;;;143732;579;46012;-62
2021/06/09 09:02:38;;;;;;;13.25;8.95;;;;;;;;;;143726;579;46022;-62
2021/06/09 09:05:08;;;;;;;15.80;8.50;;;;;;;;;;143727;583;46020;-62
2021/06/09 09:07:35;;;;;;;10.57;7.72;;;;;;;;;;143727;598;46014;-63
2021/06/09 09:10:04;;;;;;;10.30;7.40;;;;;;;;;;143732;566;45021;-62
2021/06/09 09:12:33;;;;;;;18.42;7.55;;;;;;;;;;143724;565;46023;-63
2021/06/09 09:15:00;;;;;;;13.23;7.50;;;;;;;;;;143726;569;46020;-62
2021/06/09 09:17:27;;;;;;;10.73;7.07;;;;;;;;;;143729;583;45022;-62
2021/06/09 09:20:10;;;;;;;11.48;6.82;;;;;;;;;;143732;611;46012;-62
2021/06/09 09:22:38;;;;;;;9.95;7.10;;;;;;;;;;143727;585;46020;-61
2021/06/09 09:25:14;;;;;;;11.20;7.47;;;;;;;;;;143726;595;46021;-62
2021/06/09 09:27:50;;;;;;;12.37;8.50;;;;;;;;;;143729;616;46012;-62
2021/06/09 09:30:19;;;;;;;15.45;7.60;;;;;;;;;;143732;595;46012;-61
2021/06/09 09:33:07;;;;;;;14.30;9.48;;;;;;;;;;143726;569;46021;-62
2021/06/09 09:35:40;;;;;;;18.83;9.18;;;;;;;;;;143724;618;46020;-62
2021/06/09 09:38:33;;;;;;;15.63;9.40;;;;;;;;;;143727;635;46012;-63
2021/06/09 09:41:18;;;;;;;11.85;9.05;;;;;;;;;;143731;626;46021;-64
2021/06/09 09:43:54;;;;;;;11.00;8.82;;;;;;;;;;143725;624;47012;-63
2021/06/09 09:46:32;;;;;;;14.18;9.75;;;;;;;;;;143728;599;46021;-64
2021/06/09 09:49:02;;;;;;;14.02;10.52;;;;;;;;;;143729;662;46012;-63
2021/06/09 09:51:30;;;;;;;12.23;8.75;;;;;;;;;;143733;585;45020;-63
2021/06/09 09:54:04;;;;;;;12.30;10.50;;;;;;;;;;143728;576;46022;-63
2021/06/09 09:56:42;;;;;;;16.12;10.90;;;;;;;;;;143726;564;47012;-63
2021/06/09 09:59:13;;;;;;;15.25;9.65;;;;;;;;;;143728;722;46012;-63
2021/06/09 10:01:49;;;;;;;12.50;9.07;;;;;;;;;;143732;614;46020;-62
2021/06/09 10:04:18;;;;;;;15.23;8.52;;;;;;;;;;143726;579;47020;-62
2021/06/09 10:06:48;;;;;;;23.35;9.07;;;;;;;;;;143727;567;46012;-62
2021/06/09 10:09:20;;;;;;;17.40;9.20;;;;;;;;;;143731;609;45022;-61
2021/06/09 10:11:49;;;;;;;13.95;8.35;;;;;;;;;;143732;626;46012;-61
2021/06/09 10:14:31;;;;;;;12.30;8.05;;;;;;;;;;143728;588;46020;-61
2021/06/09 10:17:12;;;;;;;9.48;7.72;;;;;;;;;;143724;580;46021;-60
2021/06/09 10:19:44;;;;;;;10.35;8.18;;;;;;;;;;143730;613;46012;-62
2021/06/09 10:22:36;;;;;;;11.68;8.57;;;;;;;;;;143734;593;45020;-61
2021/06/09 10:25:13;;;;;;;12.43;9.25;;;;;;;;;;143728;567;46021;-60
2021/06/09 10:27:50;;;;;;;11.27;8.43;;;;;;;;;;143728;591;46020;-59
2021/06/09 10:30:28;;;;;;;9.75;7.35;;;;;;;;;;143730;573;46012;-60
2021/06/09 10:32:59;;;;;;;10.70;7.05;;;;;;;;;;143732;604;46021;-61
2021/06/09 10:35:31;;;;;;;11.52;7.72;;;;;;;;;;143729;628;46022;-59
2021/06/09 10:37:59;;;;;;;13.82;10.15;;;;;;;;;;143728;574;46020;-60
2021/06/09 10:40:28;;;;;;;11.88;8.90;;;;;;;;;;143730;564;47020;-61
2021/06/09 10:42:57;;;;;;;12.00;9.60;;;;;;;;;;143733;581;46020;-59
2021/06/09 10:45:24;;;;;;;9.60;7.82;;;;;;;;;;143728;592;47020;-60
2021/06/09 10:47:58;;;;;;;17.73;8.38;;;;;;;;;;143730;569;46021;-63
2021/06/09 10:50:26;;;;;;;11.10;8.70;;;;;;;;;;143731;641;45020;-60
2021/06/09 10:52:54;;;;;;;8.80;7.53;;;;;;;;;;143733;574;46020;-60
2021/06/09 10:55:21;;;;;;;11.98;8.13;;;;;;;;;;143727;564;46029;-61
2021/06/09 10:57:50;;;;;;;8.63;6.85;;;;;;;;;;143728;589;46020;-61
2021/06/09 11:00:19;;;;;;;12.07;9.48;;;;;;;;;;143730;600;46012;-62
2021/06/09 11:02:48;;;;;;;11.00;8.32;;;;;;;;;;143734;585;45021;-61
2021/06/09 11:05:16;;;;;;;9.38;7.80;;;;;;;;;;143728;566;46052;-61
2021/06/09 11:07:45;;;;;;;8.55;6.90;;;;;;;;;;143728;607;46021;-61
2021/06/09 11:10:41;;;;;;;10.27;6.82;;;;;;;;;;143732;576;45021;-61
2021/06/09 11:13:09;;;;;;;9.93;7.40;;;;;;;;;;143733;595;46012;-60
2021/06/09 11:15:37;;;;;;;10.77;8.45;;;;;;;;;;143728;620;46022;-60
2021/06/09 11:18:14;;;;;;;11.45;7.85;;;;;;;;;;143728;600;46020;-60
2021/06/09 11:20:45;;;;;;;17.45;12.40;;;;;;;;;;143732;567;45020;-60
2021/06/09 11:23:28;;;;;;;12.57;7.18;;;;;;;;;;143732;580;46013;-60
2021/06/09 11:25:55;;;;;;;13.38;8.60;;;;;;;;;;143730;618;46021;-61
2021/06/09 11:28:41;;;;;;;9.85;7.60;;;;;;;;;;143728;638;46012;-61
2021/06/09 11:31:21;;;;;;;14.60;8.15;;;;;;;;;;143730;592;46013;-61
2021/06/09 11:34:06;;;;;;;10.10;7.80;;;;;;;;;;143733;652;46012;-64
2021/06/09 11:36:39;;;;;;;10.10;7.37;;;;;;;;;;143728;564;46022;-62
2021/06/09 11:39:27;;;;;;;8.80;7.15;;;;;;;;;;143728;692;46021;-63
2021/06/09 11:41:55;;;;;;;9.20;6.65;;;;;;;;;;143730;648;46012;-63
2021/06/09 11:44:37;;;;;;;14.25;7.72;;;;;;;;;;143733;596;46012;-63
2021/06/09 11:47:42;;;;;;;7.72;6.93;;;;;;;;;;143728;570;46022;-64
2021/06/09 11:50:30;;;;;;;8.77;7.57;;;;;;;;;;143727;675;46020;-63
2021/06/09 11:53:19;;;;;;;10.50;7.43;;;;;;;;;;143730;583;46012;-63
2021/06/09 11:56:17;;;;;;;9.30;6.75;;;;;;;;;;143731;570;46021;-64
2021/06/09 11:58:46;;;;;;;8.50;7.35;;;;;;;;;;143729;630;46024;-64
2021/06/09 12:01:16;;;;;;;13.98;7.12;;;;;;;;;;143728;583;46021;-64
2021/06/09 12:03:43;;;;;;;9.95;7.45;;;;;;;;;;143728;569;46012;-63
2021/06/09 12:06:21;;;;;;;9.63;6.72;;;;;;;;;;143733;589;46020;-62
2021/06/09 12:08:51;;;;;;;11.23;8.27;;;;;;;;;;143728;590;46022;-64
2021/06/09 12:11:18;;;;;;;14.18;8.15;;;;;;;;;;143726;648;46020;-64
2021/06/09 12:13:46;;;;;;;8.82;7.87;;;;;;;;;;143730;623;46012;-63
2021/06/09 12:16:21;;;;;;;9.82;7.40;;;;;;;;;;143734;589;45021;-63
2021/06/09 12:18:49;;;;;;;11.25;8.23;;;;;;;;;;143729;565;46023;-63
2021/06/09 12:21:20;;;;;;;10.70;8.27;;;;;;;;;;143728;592;46020;-63
2021/06/09 12:23:55;;;;;;;8.43;7.07;;;;;;;;;;143729;564;46012;-63
2021/06/09 12:26:22;;;;;;;10.00;8.07;;;;;;;;;;143733;605;46020;-63
2021/06/09 12:29:03;;;;;;;13.27;9.75;;;;;;;;;;143728;653;46047;-64
2021/06/09 12:31:31;;;;;;;15.00;9.35;;;;;;;;;;143726;592;46028;-64
2021/06/09 12:33:58;;;;;;;16.45;9.98;;;;;;;;;;143730;653;46012;-65
2021/06/09 12:36:25;;;;;;;10.77;8.98;;;;;;;;;;143730;568;48018;-64
2021/06/09 12:38:53;;;;;;;14.63;10.95;;;;;;;;;;143729;698;46021;-63
2021/06/09 12:41:30;;;;;;;12.75;9.43;;;;;;;;;;143726;574;46020;-62
2021/06/09 12:44:10;;;;;;;13.93;10.32;;;;;;;;;;143732;569;45020;-65
2021/06/09 12:46:37;;;;;;;11.30;9.93;;;;;;;;;;143733;574;46021;-63
2021/06/09 12:49:04;;;;;;;17.02;11.68;;;;;;;;;;143727;624;46022;-65
2021/06/09 12:51:31;;;;;;;14.70;11.50;;;;;;;;;;143726;578;46020;-64
2021/06/09 12:53:58;;;;;;;14.15;11.35;;;;;;;;;;143729;583;46012;-62
2021/06/09 12:56:26;;;;;;;11.82;9.63;;;;;;;;;;143734;591;45032;-63
2021/06/09 12:58:53;;;;;;;16.52;11.75;;;;;;;;;;143726;566;46022;-63
2021/06/09 13:01:20;;;;;;;12.15;10.82;;;;;;;;;;143728;675;46020;-63
2021/06/09 13:03:47;;;;;;;14.20;11.93;;;;;;;;;;143729;595;46012;-63
2021/06/09 13:06:25;;;;;;;14.75;10.55;;;;;;;;;;143733;598;46020;-64
2021/06/09 13:09:00;;;;;;;12.23;10.93;;;;;;;;;;143729;773;46021;-63
2021/06/09 13:11:37;;;;;;;14.52;11.70;;;;;;;;;;143727;591;46020;-64
2021/06/09 13:14:06;;;;;;;12.85;11.25;;;;;;;;;;143731;632;45020;-63
2021/06/09 13:16:39;;;;;;;13.40;10.68;;;;;;;;;;143732;567;46021;-64
2021/06/09 13:19:09;;;;;;;12.43;10.27;;;;;;;;;;143726;703;46014;-63
2021/06/09 13:21:44;;;;;;;13.77;10.80;;;;;;;;;;143730;623;46012;-64
2021/06/09 13:24:34;;;;;;;13.68;11.90;;;;;;;;;;143728;596;46012;-62
2021/06/09 13:27:30;;;;;;;14.45;11.02;;;;;;;;;;143732;581;46012;-62
2021/06/09 13:29:57;;;;;;;17.08;12.82;;;;;;;;;;143728;817;46021;-62
2021/06/09 13:32:26;;;;;;;16.27;11.93;;;;;;;;;;143728;623;46012;-63
2021/06/09 13:35:20;;;;;;;14.32;11.05;;;;;;;;;;143728;600;46014;-63
2021/06/09 13:37:53;;;;;;;13.90;10.53;;;;;;;;;;143733;602;46012;-63
2021/06/09 13:40:26;;;;;;;11.80;9.90;;;;;;;;;;143726;577;47023;-62
2021/06/09 13:43:10;;;;;;;13.85;9.70;;;;;;;;;;143726;590;46020;-63
2021/06/09 13:45:49;;;;;;;9.77;8.77;;;;;;;;;;143728;570;46013;-63
2021/06/09 13:48:22;;;;;;;9.52;8.52;;;;;;;;;;143734;569;45020;-61
2021/06/09 13:51:16;;;;;;;10.48;9.15;;;;;;;;;;143728;581;46020;-63
2021/06/09 13:53:58;;;;;;;12.77;9.20;;;;;;;;;;143726;570;46021;-62
2021/06/09 13:56:44;;;;;;;11.20;9.05;;;;;;;;;;143730;620;46014;-62
2021/06/09 13:59:25;;;;;;;10.00;9.00;;;;;;;;;;143733;575;46020;-63
2021/06/09 14:02:06;;;;;;;14.63;10.18;;;;;;;;;;143729;606;46023;-62
2021/06/09 14:04:39;;;;;;;11.07;9.32;;;;;;;;;;143729;589;46012;-62
2021/06/09 14:07:09;;;;;;;11.52;9.77;;;;;;;;;;143728;592;46013;-62
2021/06/09 14:09:46;;;;;;;11.15;9.35;;;;;;;;;;143733;564;46020;-62
2021/06/09 14:12:14;;;;;;;11.15;8.45;;;;;;;;;;143729;599;46020;-62
2021/06/09 14:14:41;;;;;;;11.10;9.20;;;;;;;;;;143730;614;46021;-62
2021/06/09 14:17:25;;;;;;;13.68;10.32;;;;;;;;;;143730;579;45021;-62
2021/06/09 14:20:06;;;;;;;9.75;8.48;;;;;;;;;;143734;569;45020;-62
2021/06/09 14:22:40;;;;;;;9.50;8.10;;;;;;;;;;143728;589;46049;-61
2021/06/09 14:25:15;;;;;;;12.02;8.38;;;;;;;;;;143728;591;46020;-61
2021/06/09 14:28:17;;;;;;;9.38;7.82;;;;;;;;;;143730;576;46012;-61
2021/06/09 14:30:58;;;;;;;10.27;7.60;;;;;;;;;;143729;625;46021;-61
2021/06/09 14:33:37;;;;;;;8.63;7.10;;;;;;;;;;143728;591;47020;-62
2021/06/09 14:36:18;;;;;;;9.90;8.30;;;;;;;;;;143726;582;46020;-62
2021/06/09 14:39:13;;;;;;;8.95;6.82;;;;;;;;;;143731;564;46021;-62
2021/06/09 14:41:51;;;;;;;8.50;7.20;;;;;;;;;;143733;585;46020;-62
2021/06/09 14:44:53;;;;;;;13.00;6.95;;;;;;;;;;143729;624;46021;-62
2021/06/09 14:50:09;;;;;;;11.18;7.60;;;;;;;;;;143732;606;45022;-62
2021/06/09 14:52:39;;;;;;;8.82;7.03;;;;;;;;;;143734;570;45033;-61
2021/06/09 14:55:17;;;;;;;11.77;6.57;;;;;;;;;;143728;631;46020;-62
2021/06/09 14:57:44;;;;;;;12.75;8.02;;;;;;;;;;143727;632;46012;-62
2021/06/09 15:00:21;;;;;;;11.12;8.27;;;;;;;;;;143726;570;46012;-61